Time;durP1;ratioP1;P1;durP2;ratioP2;P2;SDS_P1;SDS_P2;PMS_P1;PMS_P2;Temp;Humidity;BMP_temperature;BMP_pressure;BME280_temperature;BME280_humidity;BME280_pressure;Samples;Min_cycle;Max_cycle;Signal;HPM_P1;HPM_P2
2022/03/02 00:01:17;;;;;;;29.23;16.95;;;;;;;4.15;76.12;102455.69;5243371;28;20044;-68
2022/03/02 00:03:49;;;;;;;28.92;17.88;;;;;;;4.17;76.99;102456.50;5243392;28;20394;-68
2022/03/02 00:06:20;;;;;;;29.75;18.35;;;;;;;4.09;77.20;102445.25;5242605;28;20043;-68
2022/03/02 00:08:52;;;;;;;30.88;18.35;;;;;;;4.13;76.47;102454.84;5251783;28;20033;-68
2022/03/02 00:11:24;;;;;;;29.45;17.52;;;;;;;3.98;76.14;102458.72;5251073;28;20449;-68
2022/03/02 00:13:56;;;;;;;33.65;18.15;;;;;;;4.04;76.38;102455.91;5241832;28;20056;-68
2022/03/02 00:16:28;;;;;;;30.55;18.58;;;;;;;3.99;77.25;102452.53;5242631;28;20049;-68
2022/03/02 00:19:00;;;;;;;28.92;17.98;;;;;;;3.98;76.69;102456.06;5257170;28;20032;-68
2022/03/02 00:21:31;;;;;;;28.40;18.58;;;;;;;3.92;75.83;102465.00;5257118;28;20035;-68
2022/03/02 00:24:04;;;;;;;28.95;18.10;;;;;;;3.92;76.05;102458.84;5240682;28;21568;-67
2022/03/02 00:26:35;;;;;;;35.20;18.45;;;;;;;3.81;76.80;102458.22;5234384;28;20064;-68
2022/03/02 00:29:06;;;;;;;33.92;19.42;;;;;;;3.85;76.22;102465.16;5239401;28;20116;-68
2022/03/02 00:31:37;;;;;;;32.33;20.20;;;;;;;3.83;76.80;102466.97;5234275;28;20146;-68
2022/03/02 00:34:09;;;;;;;30.65;18.38;;;;;;;3.80;75.79;102461.78;5233484;28;20033;-68
2022/03/02 00:36:41;;;;;;;29.10;18.45;;;;;;;3.75;75.66;102461.88;5235181;28;20315;-68
2022/03/02 00:39:13;;;;;;;29.23;18.80;;;;;;;3.76;77.12;102457.44;5236303;28;20398;-68
2022/03/02 00:41:44;;;;;;;29.67;18.85;;;;;;;3.70;78.35;102453.16;5233620;28;20682;-67
2022/03/02 00:44:15;;;;;;;35.30;20.55;;;;;;;3.68;77.21;102461.13;5235523;28;20127;-68
2022/03/02 00:46:46;;;;;;;33.97;22.33;;;;;;;3.62;78.24;102460.38;5234331;28;20029;-67
2022/03/02 00:49:18;;;;;;;35.22;20.17;;;;;;;3.64;77.46;102454.16;5232668;28;20029;-68
2022/03/02 00:51:49;;;;;;;35.33;21.23;;;;;;;3.64;76.96;102458.59;5239122;28;20028;-68
2022/03/02 00:54:21;;;;;;;31.80;19.20;;;;;;;3.56;76.53;102449.97;5233359;28;20079;-68
2022/03/02 00:56:52;;;;;;;30.08;18.73;;;;;;;3.48;78.18;102458.03;5234949;28;20035;-67
2022/03/02 00:59:24;;;;;;;32.67;19.63;;;;;;;3.53;77.45;102450.91;5236084;28;21747;-67
2022/03/02 01:01:55;;;;;;;36.97;22.88;;;;;;;3.34;77.57;102451.28;5240304;28;20028;-67
2022/03/02 01:04:26;;;;;;;35.88;20.65;;;;;;;3.38;78.48;102445.97;5239345;28;20033;-68
2022/03/02 01:06:58;;;;;;;34.22;21.00;;;;;;;3.32;79.80;102441.69;5241655;28;20025;-68
2022/03/02 01:09:29;;;;;;;30.92;19.05;;;;;;;3.34;78.30;102430.19;5246856;28;20108;-68
2022/03/02 01:12:00;;;;;;;31.40;20.30;;;;;;;3.21;77.54;102427.81;5237438;28;20491;-67
2022/03/02 01:14:32;;;;;;;32.55;19.50;;;;;;;3.30;78.57;102430.28;5235196;28;20060;-67
2022/03/02 01:17:03;;;;;;;32.00;19.52;;;;;;;3.25;78.38;102434.78;5236050;28;20471;-67
2022/03/02 01:19:36;;;;;;;31.55;19.10;;;;;;;3.23;78.51;102432.16;5237375;28;20138;-67
2022/03/02 01:22:07;;;;;;;35.28;19.05;;;;;;;3.21;77.84;102420.78;5233851;28;20058;-67
2022/03/02 01:24:38;;;;;;;31.90;20.55;;;;;;;3.08;79.29;102419.28;5238203;28;20508;-68
2022/03/02 01:27:09;;;;;;;29.98;17.92;;;;;;;3.15;78.46;102420.91;5244353;28;20040;-67
2022/03/02 01:29:41;;;;;;;32.88;19.30;;;;;;;3.06;79.32;102416.66;5249124;28;20677;-67
2022/03/02 01:32:12;;;;;;;29.60;18.60;;;;;;;3.05;78.68;102421.97;5251101;28;20029;-67
2022/03/02 01:34:44;;;;;;;30.05;18.73;;;;;;;3.04;79.03;102409.69;5246445;28;21596;-67
2022/03/02 01:37:16;;;;;;;29.25;18.60;;;;;;;2.93;77.83;102407.25;5245602;28;20215;-67
2022/03/02 01:39:48;;;;;;;28.55;17.88;;;;;;;2.99;78.41;102401.88;5246368;28;20033;-67
2022/03/02 01:42:19;;;;;;;27.17;17.65;;;;;;;2.95;78.70;102413.38;5245791;28;20052;-68
2022/03/02 01:44:51;;;;;;;32.35;18.63;;;;;;;2.95;78.01;102413.38;5245070;28;20112;-67
2022/03/02 01:47:27;;;;;;;32.45;18.95;;;;;;;2.91;79.37;102412.56;5243379;28;20119;-67
2022/03/02 01:49:59;;;;;;;27.40;17.73;;;;;;;2.93;79.30;102407.25;5245841;28;20030;-67
2022/03/02 01:52:30;;;;;;;34.90;18.98;;;;;;;2.91;78.76;102409.91;5248264;28;20036;-67
2022/03/02 01:55:03;;;;;;;29.10;18.58;;;;;;;2.88;79.49;102401.22;5250313;28;20106;-67
2022/03/02 01:57:34;;;;;;;33.30;18.88;;;;;;;2.84;78.95;102403.06;5246310;28;20108;-67
2022/03/02 02:00:08;;;;;;;31.58;18.48;;;;;;;2.84;78.79;102394.25;5238887;28;20097;-68
2022/03/02 02:02:40;;;;;;;34.05;19.08;;;;;;;2.76;78.49;102397.03;5245557;28;20028;-67
2022/03/02 02:05:12;;;;;;;31.42;18.05;;;;;;;2.81;78.71;102400.47;5246644;28;20475;-67
2022/03/02 02:07:44;;;;;;;32.38;19.52;;;;;;;2.82;79.03;102403.97;5246351;28;20242;-67
2022/03/02 02:10:15;;;;;;;32.55;18.65;;;;;;;2.82;79.72;102393.41;5248583;28;20071;-68
2022/03/02 02:12:47;;;;;;;31.17;17.98;;;;;;;2.77;78.67;102390.03;5244407;28;20025;-67
2022/03/02 02:15:18;;;;;;;32.10;18.83;;;;;;;2.77;80.27;102390.88;5245288;28;20137;-67
2022/03/02 02:17:50;;;;;;;27.63;17.73;;;;;;;2.82;80.11;102380.25;5247675;28;20036;-67
2022/03/02 02:20:23;;;;;;;31.63;18.38;;;;;;;2.80;79.83;102385.56;5248668;28;20123;-67
2022/03/02 02:22:55;;;;;;;31.60;18.00;;;;;;;2.78;80.17;102382.09;5245504;28;20434;-67
2022/03/02 02:25:26;;;;;;;31.23;17.67;;;;;;;2.86;79.05;102377.53;5240632;28;20047;-67
2022/03/02 02:27:57;;;;;;;30.00;17.55;;;;;;;2.87;78.33;102384.53;5245945;28;20060;-68
2022/03/02 02:30:30;;;;;;;28.15;17.88;;;;;;;2.84;78.30;102387.25;5246532;28;20068;-69
2022/03/02 02:33:02;;;;;;;28.70;17.75;;;;;;;2.87;77.95;102379.25;5237561;28;20029;-67
2022/03/02 02:35:34;;;;;;;31.63;18.38;;;;;;;2.92;78.42;102377.41;5242134;28;20039;-67
2022/03/02 02:38:06;;;;;;;32.65;19.08;;;;;;;2.81;77.97;102371.47;5244066;28;20036;-67
2022/03/02 02:40:37;;;;;;;29.40;17.08;;;;;;;2.86;79.33;102371.41;5245138;28;20047;-67
2022/03/02 02:43:08;;;;;;;29.75;17.80;;;;;;;2.89;77.81;102369.53;5251740;28;20017;-69
2022/03/02 02:45:39;;;;;;;27.92;17.98;;;;;;;2.89;77.73;102364.28;5244326;28;20029;-68
2022/03/02 02:48:11;;;;;;;28.85;18.00;;;;;;;2.87;77.88;102360.78;5249939;28;20032;-67
2022/03/02 02:50:43;;;;;;;28.58;17.85;;;;;;;2.93;78.50;102359.81;5249159;28;20025;-67
2022/03/02 02:53:15;;;;;;;27.70;17.10;;;;;;;2.85;77.79;102365.22;5243693;28;20083;-67
2022/03/02 02:55:48;;;;;;;27.77;16.92;;;;;;;2.87;77.03;102367.84;5246731;28;20095;-67
2022/03/02 02:58:19;;;;;;;28.40;17.10;;;;;;;2.85;76.99;102362.59;5234549;28;20037;-67
2022/03/02 03:00:51;;;;;;;28.60;17.65;;;;;;;2.85;77.22;102372.28;5239364;28;20505;-67
2022/03/02 03:03:22;;;;;;;27.48;18.10;;;;;;;2.89;78.01;102368.69;5246723;28;20025;-68
2022/03/02 03:05:53;;;;;;;26.58;15.90;;;;;;;2.89;76.74;102369.53;5247479;28;20573;-67
2022/03/02 03:08:24;;;;;;;28.38;16.58;;;;;;;2.87;77.35;102367.84;5245778;28;20031;-67
2022/03/02 03:10:56;;;;;;;26.90;16.83;;;;;;;2.88;77.58;102359.91;5247910;28;20163;-67
2022/03/02 03:13:27;;;;;;;25.05;16.17;;;;;;;2.77;76.08;102359.25;5249549;28;20060;-68
2022/03/02 03:15:58;;;;;;;26.63;15.77;;;;;;;2.79;76.01;102362.72;5248785;28;20053;-67
2022/03/02 03:18:30;;;;;;;26.77;16.35;;;;;;;2.78;75.94;102361.00;5247250;28;20036;-67
2022/03/02 03:21:01;;;;;;;25.73;16.02;;;;;;;2.83;76.42;102363.53;5246013;28;20037;-67
2022/03/02 03:23:32;;;;;;;24.27;15.55;;;;;;;2.73;75.26;102352.31;5248482;28;20079;-67
2022/03/02 03:26:03;;;;;;;24.70;15.02;;;;;;;2.77;75.46;102358.41;5236947;28;20041;-67
2022/03/02 03:28:35;;;;;;;26.10;15.70;;;;;;;2.76;75.53;102352.22;5235324;28;20037;-67
2022/03/02 03:31:06;;;;;;;24.60;15.18;;;;;;;2.79;75.69;102351.31;5238698;28;20033;-67
2022/03/02 03:33:37;;;;;;;27.38;16.42;;;;;;;2.68;75.14;102356.78;5246500;28;20438;-67
2022/03/02 03:36:09;;;;;;;27.58;15.55;;;;;;;2.77;75.62;102359.25;5237550;28;20114;-67
2022/03/02 03:38:40;;;;;;;24.38;14.43;;;;;;;2.75;74.46;102366.31;5246262;28;20123;-67
2022/03/02 03:41:11;;;;;;;24.52;15.27;;;;;;;2.73;73.78;102350.53;5243561;28;20419;-67
2022/03/02 03:43:43;;;;;;;27.65;15.32;;;;;;;2.75;74.53;102351.38;5249363;28;20063;-67
2022/03/02 03:46:14;;;;;;;25.58;14.82;;;;;;;2.72;74.15;102351.44;5240880;28;20099;-67
2022/03/02 03:48:46;;;;;;;22.42;13.93;;;;;;;2.71;73.72;102348.84;5243461;28;20032;-67
2022/03/02 03:51:17;;;;;;;23.88;14.38;;;;;;;2.70;74.15;102352.34;5244495;28;20028;-67
2022/03/02 03:53:48;;;;;;;23.98;14.32;;;;;;;2.68;72.91;102352.38;5241970;28;20036;-67
2022/03/02 03:56:20;;;;;;;23.58;14.45;;;;;;;2.63;73.83;102348.13;5242450;28;20039;-68
2022/03/02 03:58:51;;;;;;;24.60;14.90;;;;;;;2.62;75.18;102341.09;5245640;28;20071;-67
2022/03/02 04:01:22;;;;;;;27.55;15.45;;;;;;;2.53;73.85;102340.38;5243830;28;20067;-67
2022/03/02 04:03:54;;;;;;;25.92;14.48;;;;;;;2.52;74.92;102346.53;5244023;28;20496;-67
2022/03/02 04:06:25;;;;;;;23.67;13.85;;;;;;;2.52;73.65;102346.53;5243161;28;20040;-67
2022/03/02 04:08:56;;;;;;;25.10;13.98;;;;;;;2.52;74.09;102346.53;5253065;28;20029;-67
2022/03/02 04:11:30;;;;;;;23.77;14.40;;;;;;;2.45;73.18;102334.38;5235935;28;20028;-67
2022/03/02 04:14:01;;;;;;;24.35;14.98;;;;;;;2.36;74.00;102337.19;5237098;28;20387;-67
2022/03/02 04:16:32;;;;;;;23.92;14.02;;;;;;;2.43;72.97;102330.03;5237936;28;20049;-67
2022/03/02 04:19:04;;;;;;;22.40;13.63;;;;;;;2.41;73.71;102330.06;5248563;28;20037;-67
2022/03/02 04:21:35;;;;;;;23.25;13.70;;;;;;;2.43;73.40;102324.78;5236500;28;20064;-67
2022/03/02 04:24:06;;;;;;;23.52;14.70;;;;;;;2.43;73.99;102325.63;5235617;28;20120;-67
2022/03/02 04:26:38;;;;;;;23.10;14.00;;;;;;;2.32;74.56;102323.22;5232021;28;20033;-67
2022/03/02 04:29:10;;;;;;;26.10;14.05;;;;;;;2.37;73.80;102324.91;5235439;28;20119;-67
2022/03/02 04:31:41;;;;;;;25.23;14.07;;;;;;;2.37;73.83;102320.47;5239168;28;20025;-67
2022/03/02 04:34:12;;;;;;;23.38;14.43;;;;;;;2.21;73.22;102324.31;5247661;28;20037;-67
2022/03/02 04:36:44;;;;;;;23.13;14.15;;;;;;;2.25;73.72;102308.41;5235190;28;20033;-67
2022/03/02 04:39:15;;;;;;;23.35;13.88;;;;;;;2.27;73.60;102316.28;5233821;28;21360;-67
2022/03/02 04:41:46;;;;;;;24.27;13.85;;;;;;;2.26;73.92;102314.53;5251194;28;20041;-67
2022/03/02 04:44:18;;;;;;;26.92;15.20;;;;;;;2.30;75.34;102310.94;5253108;28;20036;-67
2022/03/02 04:46:51;;;;;;;25.13;14.57;;;;;;;2.27;73.12;102311.03;5237770;28;20088;-67
2022/03/02 04:49:22;;;;;;;24.73;14.35;;;;;;;2.24;73.86;102305.81;5233899;28;20036;-67
2022/03/02 04:51:53;;;;;;;24.50;13.93;;;;;;;2.22;73.52;102305.81;5234683;28;20036;-67
2022/03/02 04:57:15;;;;;;;22.20;13.70;;;;;;;2.23;74.21;102306.72;5236375;28;20517;-67
2022/03/02 04:59:46;;;;;;;24.45;14.55;;;;;;;2.13;74.12;102295.47;5235798;28;20037;-68
2022/03/02 05:02:17;;;;;;;21.35;13.85;;;;;;;2.18;73.69;102295.38;5235340;28;20049;-67
2022/03/02 05:04:49;;;;;;;23.67;13.95;;;;;;;2.13;73.46;102293.72;5234977;28;20116;-67
2022/03/02 05:07:20;;;;;;;25.45;14.35;;;;;;;2.15;75.20;102294.56;5232440;28;20040;-67
2022/03/02 05:09:52;;;;;;;25.55;14.40;;;;;;;2.12;73.38;102296.38;5235141;28;20033;-67
2022/03/02 05:12:23;;;;;;;22.58;13.68;;;;;;;1.98;73.50;102296.63;5234539;28;20033;-67
2022/03/02 05:14:54;;;;;;;25.00;13.80;;;;;;;2.01;73.70;102290.41;5225420;28;20092;-67
2022/03/02 05:17:26;;;;;;;24.20;14.02;;;;;;;2.00;72.97;102299.22;5227576;28;20037;-67
2022/03/02 05:19:57;;;;;;;23.70;13.82;;;;;;;1.92;73.09;102294.94;5237386;28;20055;-67
2022/03/02 05:22:28;;;;;;;22.30;13.35;;;;;;;1.93;73.25;102291.41;5227025;28;20047;-67
2022/03/02 05:25:02;;;;;;;22.00;13.80;;;;;;;1.96;73.60;102294.00;5229596;28;20475;-67
2022/03/02 05:27:34;;;;;;;23.73;13.25;;;;;;;1.99;73.94;102298.34;5230967;28;20094;-67
2022/03/02 05:30:06;;;;;;;22.27;13.25;;;;;;;1.98;73.75;102287.84;5228945;28;20037;-67
2022/03/02 05:32:38;;;;;;;23.65;13.52;;;;;;;1.98;72.48;102287.84;5229330;28;20139;-67
2022/03/02 05:35:10;;;;;;;21.92;13.02;;;;;;;1.99;73.95;102281.69;5227403;28;20037;-67
2022/03/02 05:37:44;;;;;;;22.33;13.40;;;;;;;1.91;73.06;102281.81;5234542;28;20040;-67
2022/03/02 05:40:18;;;;;;;22.45;13.10;;;;;;;1.95;73.21;102291.38;5229205;28;20103;-67
2022/03/02 05:42:49;;;;;;;19.88;12.82;;;;;;;1.96;74.09;102279.97;5226412;28;20035;-67
2022/03/02 05:45:20;;;;;;;21.98;13.05;;;;;;;1.92;72.36;102287.06;5227599;28;20033;-67
2022/03/02 05:47:52;;;;;;;20.92;13.50;;;;;;;1.92;72.97;102280.94;5229127;28;20029;-68
2022/03/02 05:50:23;;;;;;;23.55;13.38;;;;;;;1.84;73.12;102278.44;5231704;28;20030;-67
2022/03/02 05:52:54;;;;;;;21.17;12.82;;;;;;;1.85;74.13;102279.28;5232038;28;20025;-67
2022/03/02 05:55:26;;;;;;;21.42;13.02;;;;;;;1.84;73.07;102280.16;5225990;28;20025;-67
2022/03/02 05:57:57;;;;;;;23.02;12.68;;;;;;;1.82;72.49;102276.69;5229312;28;20029;-68
2022/03/02 06:00:28;;;;;;;21.85;12.23;;;;;;;1.83;73.31;102279.31;5227851;28;20107;-67
2022/03/02 06:03:00;;;;;;;20.73;12.65;;;;;;;1.77;73.40;102277.66;5229850;28;20112;-67
2022/03/02 06:05:31;;;;;;;20.02;12.40;;;;;;;1.76;72.47;102283.81;5225151;28;20119;-67
2022/03/02 06:08:02;;;;;;;23.48;12.20;;;;;;;1.79;71.84;102280.25;5228175;28;20041;-67
2022/03/02 06:10:35;;;;;;;21.95;12.60;;;;;;;1.72;71.40;102282.13;5228300;28;20029;-67
2022/03/02 06:13:07;;;;;;;19.63;12.05;;;;;;;1.71;72.27;102287.44;5225404;28;20247;-67
2022/03/02 06:15:38;;;;;;;20.08;12.48;;;;;;;1.71;72.09;102285.66;5229843;28;20053;-67
2022/03/02 06:18:10;;;;;;;23.58;12.63;;;;;;;1.79;72.52;102287.28;5230514;28;20399;-67
2022/03/02 06:20:42;;;;;;;23.90;13.13;;;;;;;1.75;72.79;102283.84;5236327;28;20039;-67
2022/03/02 06:23:14;;;;;;;19.65;11.63;;;;;;;1.77;72.81;102280.28;5242192;28;20488;-67
2022/03/02 06:25:45;;;;;;;21.85;12.20;;;;;;;1.73;72.28;102289.13;5238396;28;20041;-67
2022/03/02 06:28:16;;;;;;;21.85;12.38;;;;;;;1.72;71.17;102292.63;5242021;28;20596;-67
2022/03/02 06:30:48;;;;;;;19.08;12.10;;;;;;;1.67;71.21;102286.59;5242232;28;20087;-67
2022/03/02 06:33:20;;;;;;;22.33;12.77;;;;;;;1.68;72.27;102287.47;5250769;28;20033;-67
2022/03/02 06:35:51;;;;;;;21.15;11.85;;;;;;;1.68;71.55;102290.09;5246602;28;20481;-67
2022/03/02 06:38:23;;;;;;;21.00;11.88;;;;;;;1.65;72.11;102296.28;5239551;28;20038;-67
2022/03/02 06:41:02;;;;;;;19.73;11.93;;;;;;;1.67;71.31;102281.34;5238569;28;20492;-67
2022/03/02 06:43:39;;;;;;;23.00;12.15;;;;;;;1.62;72.36;102290.19;5244426;28;20471;-67
2022/03/02 06:46:16;;;;;;;18.35;11.77;;;;;;;1.64;71.32;102293.66;5238909;28;20359;-67
2022/03/02 06:48:59;;;;;;;21.40;11.30;;;;;;;1.65;72.01;102293.66;5247285;28;20066;-68
2022/03/02 06:51:31;;;;;;;20.85;12.68;;;;;;;1.69;72.20;102297.97;5242227;28;20116;-67
2022/03/02 06:54:04;;;;;;;20.48;12.35;;;;;;;1.68;73.02;102297.97;5239214;28;21169;-67
2022/03/02 06:56:44;;;;;;;21.67;11.98;;;;;;;1.58;71.88;102301.66;5240611;28;20029;-67
2022/03/02 06:59:24;;;;;;;20.13;11.80;;;;;;;1.63;72.48;102305.97;5245099;28;21527;-67
2022/03/02 07:02:02;;;;;;;19.42;12.05;;;;;;;1.64;71.59;102299.78;5239551;28;20472;-67
2022/03/02 07:04:38;;;;;;;20.58;11.60;;;;;;;1.65;70.96;102296.28;5239268;28;20029;-67
2022/03/02 07:07:11;;;;;;;20.88;11.80;;;;;;;1.66;71.36;102300.63;5251751;28;20037;-67
2022/03/02 07:09:45;;;;;;;21.83;12.52;;;;;;;1.66;70.71;102303.25;5241365;28;20029;-67
2022/03/02 07:12:16;;;;;;;19.23;11.85;;;;;;;1.68;70.32;102304.09;5244325;28;20037;-67
2022/03/02 07:14:50;;;;;;;20.35;12.30;;;;;;;1.71;70.51;102300.59;5240107;28;20037;-67
2022/03/02 07:17:22;;;;;;;20.10;12.15;;;;;;;1.70;71.07;102304.94;5249226;28;20036;-67
2022/03/02 07:19:53;;;;;;;20.73;11.82;;;;;;;1.71;70.91;102304.06;5247725;28;20020;-67
2022/03/02 07:22:31;;;;;;;22.17;11.60;;;;;;;1.74;71.55;102306.63;5247637;28;20051;-67
2022/03/02 07:25:06;;;;;;;20.23;11.55;;;;;;;1.74;72.13;102306.63;5245254;28;20273;-67
2022/03/02 07:27:40;;;;;;;19.85;11.38;;;;;;;1.80;70.05;102310.06;5231621;28;20025;-67
2022/03/02 07:30:12;;;;;;;22.10;12.27;;;;;;;1.82;70.99;102316.19;5233594;28;20491;-67
2022/03/02 07:32:47;;;;;;;20.48;12.02;;;;;;;1.87;72.30;102316.97;5235170;28;20495;-67
2022/03/02 07:35:18;;;;;;;19.13;11.95;;;;;;;1.90;71.23;102312.53;5236570;28;20679;-67
2022/03/02 07:37:52;;;;;;;18.67;11.57;;;;;;;1.97;70.85;102310.66;5230767;28;20036;-67
2022/03/02 07:40:23;;;;;;;19.45;12.32;;;;;;;1.95;71.51;102315.94;5234850;28;20030;-67
2022/03/02 07:42:55;;;;;;;24.42;13.13;;;;;;;1.98;69.79;102322.06;5233235;28;20410;-67
2022/03/02 07:45:26;;;;;;;22.10;12.25;;;;;;;2.05;71.04;102310.53;5233697;28;20053;-67
2022/03/02 07:47:58;;;;;;;20.45;12.27;;;;;;;2.07;71.33;102303.47;5233005;28;20033;-67
2022/03/02 07:50:29;;;;;;;19.67;12.38;;;;;;;2.08;71.69;102299.94;5231177;28;20025;-67
2022/03/02 07:53:01;;;;;;;20.88;11.77;;;;;;;2.14;70.06;102303.31;5235990;28;20028;-67
2022/03/02 07:55:33;;;;;;;20.10;12.13;;;;;;;2.15;70.75;102306.84;5235148;28;20032;-67
2022/03/02 07:58:04;;;;;;;19.13;12.70;;;;;;;2.20;70.66;102301.50;5235328;28;20063;-67
2022/03/02 08:00:36;;;;;;;19.23;11.90;;;;;;;2.20;70.38;102293.59;5233959;28;20119;-67
2022/03/02 08:03:09;;;;;;;23.83;12.13;;;;;;;2.26;70.47;102299.63;5233037;28;20057;-67
2022/03/02 08:05:43;;;;;;;18.92;12.05;;;;;;;2.32;70.29;102293.34;5233524;28;20450;-67
2022/03/02 08:08:14;;;;;;;18.45;11.65;;;;;;;2.38;68.23;102293.25;5242333;28;20442;-67
2022/03/02 08:10:46;;;;;;;20.23;11.32;;;;;;;2.44;66.89;102285.25;5236115;28;20029;-67
2022/03/02 08:13:18;;;;;;;20.70;11.77;;;;;;;2.51;67.04;102286.88;5241885;28;20029;-67
2022/03/02 08:15:50;;;;;;;21.27;12.38;;;;;;;2.59;69.71;102285.81;5238114;28;20041;-67
2022/03/02 08:18:21;;;;;;;21.98;12.23;;;;;;;2.66;67.09;102288.31;5244705;28;20409;-67
2022/03/02 08:20:57;;;;;;;22.30;12.65;;;;;;;2.73;66.49;102283.78;5239937;28;20087;-67
2022/03/02 08:23:38;;;;;;;19.88;11.75;;;;;;;2.83;65.18;102287.97;5246592;28;20029;-67
2022/03/02 08:26:11;;;;;;;20.63;11.52;;;;;;;2.91;64.93;102283.38;5242200;28;20087;-67
2022/03/02 08:28:45;;;;;;;17.70;11.48;;;;;;;2.94;66.51;102288.59;5247521;28;20519;-67
2022/03/02 08:31:17;;;;;;;21.98;11.95;;;;;;;2.96;66.86;102285.94;5249846;28;20051;-67
2022/03/02 08:33:49;;;;;;;20.13;11.57;;;;;;;3.06;66.52;102287.47;5252678;28;20036;-68
2022/03/02 08:36:23;;;;;;;21.52;11.85;;;;;;;3.10;64.90;102286.50;5247652;28;20028;-67
2022/03/02 08:38:55;;;;;;;20.60;11.77;;;;;;;3.17;64.56;102289.03;5242766;28;20028;-67
2022/03/02 08:41:26;;;;;;;18.40;11.05;;;;;;;3.22;62.80;102288.00;5247559;28;20287;-68
2022/03/02 08:43:59;;;;;;;17.08;10.93;;;;;;;3.29;63.27;102276.41;5244516;28;20031;-67
2022/03/02 08:46:30;;;;;;;18.08;11.30;;;;;;;3.35;63.38;102270.13;5249491;28;20498;-68
2022/03/02 08:49:02;;;;;;;18.33;11.50;;;;;;;3.42;62.84;102278.78;5238761;28;20036;-67
2022/03/02 08:51:35;;;;;;;18.48;11.65;;;;;;;3.53;61.82;102264.41;5241262;28;20112;-67
2022/03/02 08:54:08;;;;;;;20.55;11.43;;;;;;;3.62;60.56;102276.50;5243492;28;20037;-68
2022/03/02 08:56:41;;;;;;;18.67;10.82;;;;;;;3.71;60.39;102272.78;5242673;28;20037;-68
2022/03/02 08:59:14;;;;;;;18.35;11.35;;;;;;;3.75;61.60;102273.56;5249311;28;20040;-67
2022/03/02 09:01:53;;;;;;;18.85;11.02;;;;;;;3.79;61.62;102269.94;5245479;28;20041;-67
2022/03/02 09:04:30;;;;;;;19.05;11.65;;;;;;;3.85;61.56;102267.16;5244514;28;20104;-68
2022/03/02 09:07:03;;;;;;;19.00;11.40;;;;;;;3.91;60.99;102272.25;5244544;28;20029;-68
2022/03/02 09:09:35;;;;;;;22.15;12.45;;;;;;;3.93;61.57;102270.44;5251183;28;20040;-68
2022/03/02 09:12:10;;;;;;;20.58;11.00;;;;;;;3.96;61.00;102265.09;5251010;28;20037;-68
2022/03/02 09:14:42;;;;;;;18.70;11.18;;;;;;;4.01;61.88;102260.56;5246441;28;20061;-68
2022/03/02 09:17:17;;;;;;;20.00;11.82;;;;;;;4.10;60.37;102260.34;5246901;28;20068;-68
2022/03/02 09:19:48;;;;;;;19.45;12.20;;;;;;;4.22;59.29;102261.78;5247494;28;20147;-68
2022/03/02 09:22:22;;;;;;;16.73;10.52;;;;;;;4.28;59.35;102263.41;5248690;28;20039;-68
2022/03/02 09:24:54;;;;;;;19.55;11.40;;;;;;;4.27;62.72;102259.84;5249888;28;20021;-68
2022/03/02 09:27:30;;;;;;;15.43;10.57;;;;;;;4.49;60.13;102256.66;5239626;28;20576;-68
2022/03/02 09:30:06;;;;;;;19.98;11.65;;;;;;;4.58;58.78;102259.00;5249045;28;20463;-68
2022/03/02 09:32:41;;;;;;;19.38;10.77;;;;;;;4.65;57.75;102252.63;5247860;28;20033;-68
2022/03/02 09:35:14;;;;;;;21.58;11.02;;;;;;;4.77;58.08;102258.47;5249987;28;20028;-68
2022/03/02 09:37:49;;;;;;;16.48;10.43;;;;;;;4.85;58.04;102246.78;5247489;28;20033;-68
2022/03/02 09:40:30;;;;;;;16.80;10.77;;;;;;;4.94;57.96;102250.03;5252946;28;20032;-68
2022/03/02 09:43:07;;;;;;;19.10;11.27;;;;;;;5.03;57.19;102242.69;5246840;28;20032;-68
2022/03/02 09:45:42;;;;;;;18.25;11.52;;;;;;;5.16;55.66;102244.94;5258767;28;20040;-68
2022/03/02 09:48:27;;;;;;;17.05;11.23;;;;;;;5.28;56.08;102237.50;5253534;28;20033;-68
2022/03/02 09:51:03;;;;;;;16.65;10.73;;;;;;;5.36;54.73;102239.91;5241217;28;20025;-68
2022/03/02 09:53:35;;;;;;;15.82;10.45;;;;;;;5.42;53.52;102242.34;5253335;28;20391;-68
2022/03/02 09:56:07;;;;;;;14.73;10.45;;;;;;;5.55;53.71;102240.16;5253922;28;20033;-68
2022/03/02 09:58:39;;;;;;;14.50;9.55;;;;;;;5.66;53.48;102232.72;5247361;28;20446;-68
2022/03/02 10:01:15;;;;;;;17.25;10.07;;;;;;;5.78;53.33;102231.44;5254321;28;20024;-68
2022/03/02 10:03:50;;;;;;;17.38;9.95;;;;;;;5.85;53.82;102224.19;5244678;28;20028;-68
2022/03/02 10:06:22;;;;;;;15.75;10.27;;;;;;;5.96;52.69;102221.16;5248386;28;20029;-68
2022/03/02 10:08:54;;;;;;;16.15;9.93;;;;;;;6.05;52.13;102227.00;5246031;28;20498;-68
2022/03/02 10:11:26;;;;;;;15.45;10.07;;;;;;;6.18;52.82;102226.59;5249516;28;20045;-68
2022/03/02 10:13:58;;;;;;;13.80;9.40;;;;;;;6.28;51.08;102225.31;5245801;28;20061;-68
2022/03/02 10:16:31;;;;;;;15.75;9.70;;;;;;;6.30;51.61;102236.72;5246473;28;20052;-68
2022/03/02 10:19:05;;;;;;;15.73;10.07;;;;;;;6.48;50.99;102225.47;5247121;28;20040;-68
2022/03/02 10:21:40;;;;;;;17.85;9.48;;;;;;;6.57;50.79;102236.66;5245862;28;20033;-68
2022/03/02 10:24:19;;;;;;;15.45;9.90;;;;;;;6.60;51.83;102221.50;5255441;28;20025;-68
2022/03/02 10:26:55;;;;;;;14.57;9.55;;;;;;;6.70;49.22;102227.31;5256203;28;20387;-68
2022/03/02 10:29:34;;;;;;;14.60;9.45;;;;;;;6.77;49.26;102222.63;5252785;28;20029;-68
2022/03/02 10:32:15;;;;;;;14.27;9.20;;;;;;;6.84;48.80;102221.47;5243806;28;20112;-68
2022/03/02 10:34:50;;;;;;;17.65;9.52;;;;;;;6.93;47.47;102222.91;5254938;28;20071;-68
2022/03/02 10:37:37;;;;;;;13.60;9.20;;;;;;;6.76;51.79;102212.94;5256158;28;20029;-68
2022/03/02 10:40:15;;;;;;;14.38;9.05;;;;;;;6.97;46.74;102225.38;5247872;28;20079;-68
2022/03/02 10:43:01;;;;;;;16.20;9.32;;;;;;;7.06;48.96;102219.69;5249067;28;20550;-68
2022/03/02 10:45:46;;;;;;;14.23;9.15;;;;;;;7.13;49.45;102207.03;5254385;28;20035;-68
2022/03/02 10:48:21;;;;;;;;;;;;;;;7.14;50.36;102214.09;5243543;28;20040;-68
2022/03/02 10:50:56;;;;;;;13.30;9.10;;;;;;;7.27;49.62;102219.78;5245920;28;19936;-68
2022/03/02 10:53:30;;;;;;;15.52;8.82;;;;;;;7.39;48.09;102213.09;5241605;28;20033;-68
2022/03/02 10:56:04;;;;;;;14.68;9.40;;;;;;;7.44;48.72;102211.09;5254230;28;20112;-69
2022/03/02 10:58:39;;;;;;;14.15;9.13;;;;;;;7.54;46.58;102228.41;5251844;28;20043;-68
2022/03/02 11:01:11;;;;;;;11.73;9.05;;;;;;;7.56;46.86;102215.91;5250229;28;20029;-68
2022/03/02 11:03:44;;;;;;;15.52;9.77;;;;;;;7.56;47.55;102215.91;5250917;28;20186;-69
2022/03/02 11:06:15;;;;;;;14.95;9.35;;;;;;;7.58;49.26;102207.88;5246599;28;20029;-69
2022/03/02 11:08:49;;;;;;;14.23;9.18;;;;;;;7.63;46.03;102200.56;5240022;28;20036;-66
2022/03/02 11:11:25;;;;;;;17.95;10.23;;;;;;;7.73;46.38;102206.34;5239409;28;20495;-66
2022/03/02 11:13:57;;;;;;;22.52;9.90;;;;;;;7.83;44.86;102197.94;5245179;28;20075;-66
2022/03/02 11:16:28;;;;;;;17.83;9.75;;;;;;;7.88;47.12;102202.19;5250325;28;20045;-67
2022/03/02 11:19:14;;;;;;;17.85;10.13;;;;;;;7.94;46.92;102196.59;5246818;28;20060;-69
2022/03/02 11:21:45;;;;;;;19.48;9.95;;;;;;;7.97;45.73;102189.34;5241072;28;20376;-68
2022/03/02 11:24:17;;;;;;;15.95;10.57;;;;;;;8.00;47.55;102189.22;5244113;28;20036;-68
2022/03/02 11:26:49;;;;;;;14.68;9.40;;;;;;;8.10;45.59;102186.16;5250996;28;20060;-68
2022/03/02 11:29:26;;;;;;;15.43;9.85;;;;;;;8.05;46.83;102181.03;5247495;28;20036;-68
2022/03/02 11:31:57;;;;;;;13.43;9.77;;;;;;;8.23;44.90;102174.06;5253849;28;20066;-68
2022/03/02 11:34:29;;;;;;;16.67;9.73;;;;;;;8.32;44.83;102168.31;5248148;28;20033;-68
2022/03/02 11:37:06;;;;;;;14.77;9.65;;;;;;;8.32;45.68;102170.09;5244752;28;20064;-69
2022/03/02 11:39:43;;;;;;;15.40;9.30;;;;;;;8.37;46.06;102168.97;5239798;28;20021;-69
2022/03/02 11:42:17;;;;;;;14.18;9.40;;;;;;;8.50;44.96;102161.31;5238702;28;20144;-68
2022/03/02 11:44:49;;;;;;;13.68;9.68;;;;;;;8.55;44.73;102161.09;5243250;28;20032;-68
2022/03/02 11:47:21;;;;;;;13.68;8.93;;;;;;;8.59;44.45;102160.00;5244846;28;20033;-68